Nearby METAR Reports

KLNK - Lincoln, Nebraska, USA
Distance from station: WNW 8mi, 13km
Updated: Sat, 04-Jul-2020 6:54am CDT
Mist, Clear
Mist, Clear
 Wind from N
Wind: N 3 mph , 6 km/h
Temperature: 72°F , 22°C
Dew Point: 66°F , 19°C
Humidity: 83%
Barometer: 30.05 inHg , 1017.6 hPa
Summary: Mist
Clouds: Clear
Visibility: 6 miles , 10 km
2020/07/04 11:54 KLNK 041154Z AUTO 35003KT 6SM BR CLR 22/19 A3005 RMK AO2 SLP165 T02170194 10244 20200 55000
KAHQ - Wahoo, Nebraska, USA
Distance from station: N 31mi, 49km
Updated: Sat, 04-Jul-2020 7:35am CDT
Mist, Clear
Mist, Clear
 Wind from NNE
Wind: NNE 3 mph , 6 km/h
Temperature: 72°F , 22°C
Dew Point: 72°F , 22°C
Humidity: 100%
Barometer: 30.07 inHg , 1018.3 hPa
Summary: Mist
Clouds: Clear
Visibility: 4 miles , 6 km
2020/07/04 12:35 KAHQ 041235Z AUTO 02003KT 4SM BR CLR 22/22 A3007 RMK AO2 T02170217
 
KBIE - Beatrice Municip, Nebraska, USA
Distance from station: S 36mi, 57km
Updated: Sat, 04-Jul-2020 7:35am CDT
Clear
Clear
 Wind from ENE
Wind: ENE 6 mph , 9 km/h
Temperature: 72°F , 22°C
Dew Point: 70°F , 21°C
Humidity: 94%
Barometer: 30.06 inHg , 1017.9 hPa
Clouds: Clear
Visibility: 10 miles , 16 km
2020/07/04 12:35 KBIE 041235Z AUTO 07005KT 10SM CLR 22/21 A3006 RMK AO2 T02240210
KMLE - Omaha/Millard, Nebraska, USA
Distance from station: NE 39mi, 63km
Updated: Sat, 04-Jul-2020 7:35am CDT
Clear
Clear
 Wind from calm
Wind: Calm
Temperature: 75°F , 24°C
Dew Point: 70°F , 21°C
Humidity: 83%
Barometer: 30.06 inHg , 1017.9 hPa
Clouds: Clear
Visibility: 10 miles , 16 km
2020/07/04 12:35 KMLE 041235Z AUTO 00000KT 10SM CLR 24/21 A3006 RMK AO2 T02430209
 
KPMV - Plattsmouth Muni, Nebraska, USA
Distance from station: ENE 39mi, 63km
Updated: Sat, 04-Jul-2020 7:35am CDT
Clear
Clear
 Wind from ENE
Wind: ENE 5 mph , 7 km/h
Temperature: 72°F , 22°C
Dew Point: 70°F , 21°C
Humidity: 94%
Barometer: 30.06 inHg , 1017.9 hPa
Clouds: Clear
Visibility: 10 miles , 16 km
2020/07/04 12:35 KPMV 041235Z AUTO 06004KT 10SM CLR 22/21 A3006 RMK AO2 T02230207
KAFK - Nebraska City, Nebraska, USA
Distance from station: ESE 43mi, 69km
Updated: Sat, 04-Jul-2020 7:35am CDT
Mist, Clear
Mist, Clear
 Wind from NNE
Wind: NNE 5 mph , 7 km/h
Temperature: 72°F , 22°C
Dew Point: 72°F , 22°C
Humidity: 100%
Barometer: 30.06 inHg , 1017.9 hPa
Summary: Mist
Clouds: Clear
Visibility: 5 miles , 8 km
2020/07/04 12:35 KAFK 041235Z AUTO 03004KT 5SM BR CLR 22/22 A3006 RMK AO2 T02180218
 
KOFF - Offutt Afb/Belle, Nebraska, USA
Distance from station: ENE 44mi, 70km
Updated: Sat, 04-Jul-2020 6:56am CDT
Clear
Clear
 Wind from calm
Wind: Calm
Temperature: 72°F , 22°C
Dew Point: 68°F , 20°C
Humidity: 88%
Barometer: 30.05 inHg , 1017.6 hPa
Clouds: Clear
Visibility: 10 miles , 16 km
2020/07/04 11:56 KOFF 041156Z AUTO 00000KT 10SM CLR 22/20 A3005 RMK AO2 SLP172 T02170203 10224 20201 50002 $
KFET - Fremont Muni Arp, Nebraska, USA
Distance from station: N 46mi, 74km
Updated: Sat, 04-Jul-2020 7:35am CDT
Clear
Clear
 Wind from calm
Wind: Calm
Temperature: 73°F , 23°C
Dew Point: 72°F , 22°C
Humidity: 94%
Barometer: 30.08 inHg , 1018.6 hPa
Clouds: Clear
Visibility: 7 miles , 11 km
2020/07/04 12:35 KFET 041235Z AUTO 00000KT 7SM CLR 23/22 A3008 RMK AO2 T02250216
 
KBTA - Blair Muni, Nebraska, USA
Distance from station: NNE 51mi, 82km
Updated: Sat, 04-Jul-2020 7:35am CDT
Clear
Clear
 Wind from NNE
Wind: NNE 6 mph , 9 km/h
Temperature: 72°F , 22°C
Dew Point: 70°F , 21°C
Humidity: 94%
Barometer: 30.08 inHg , 1018.6 hPa
Clouds: Clear
Visibility: 10 miles , 16 km
2020/07/04 12:35 KBTA 041235Z AUTO 02005KT 10SM CLR 22/21 A3008 RMK AO2 T02180205
KJYR - York, Nebraska, USA
Distance from station: W 52mi, 84km
Updated: Sat, 04-Jul-2020 7:35am CDT
Mist, Clear
Mist, Clear
 Wind from calm
Wind: Calm
Temperature: 72°F , 22°C
Dew Point: 72°F , 22°C
Humidity: 100%
Barometer: 30.07 inHg , 1018.3 hPa
Summary: Mist
Clouds: Clear
Visibility: 3 miles , 5 km
2020/07/04 12:35 KJYR 041235Z AUTO 00000KT 3SM BR CLR 22/22 A3007 RMK AO2
 
KOMA - Omaha/Eppley, Nebraska, USA
Distance from station: NE 53mi, 85km
Updated: Sat, 04-Jul-2020 6:52am CDT
Partly Cloudy
Partly Cloudy
 Wind from N
Wind: N 6 mph , 9 km/h
Temperature: 68°F , 20°C
Dew Point: 66°F , 19°C
Humidity: 94%
Barometer: 30.05 inHg , 1017.6 hPa
Clouds: Partly Cloudy
Visibility: 10 miles , 16 km
Cloud details: Partly Cloudy 25000 ft
2020/07/04 11:52 KOMA 041152Z 35005KT 10SM SCT250 20/19 A3005 RMK AO2 SLP168 T02000189 10250 20189 53003
KOLU - Columbus Muni, Nebraska, USA
Distance from station: NW 58mi, 93km
Updated: Sat, 04-Jul-2020 7:08am CDT
Mist, Clear
Mist, Clear
 Wind from ENE
Wind: ENE 6 mph , 9 km/h
Temperature: 70°F , 21°C
Dew Point: 70°F , 21°C
Humidity: 100%
Barometer: 30.08 inHg , 1018.6 hPa
Summary: Mist
Clouds: Clear
Visibility: 3 miles , 5 km
2020/07/04 12:08 KOLU 041208Z AUTO 07005KT 3SM BR CLR 21/21 A3008 RMK AO2